Urmond, Netherlands
Current Conditions -  °F | °C
As of 5:25 AM on Friday 31 Oct 2014 (Local Time) from EHBK Reporting Station
Clear Clear  
Wind Chill: 54°   Ceiling: Unl
Heat Index: 54°   Visibility: 6mi
Dew Point: 50°   Wind: 12mph
Humidity: 88%   Direction: 210°SSW
Pressure: 30.18"   Gusts: NA
Location:  50.99°N, 5.77°E
Report Text: EHBK 310425Z AUTO 21010KT 9999 NSC 12/10 Q1022
Loading
Personal Weather Stations






























Interactive Weather Map
Tropical Storm Tracking
New forecast layout! Learn more

10-Day Weather Forecast

Advertisements
Track Severe Weather on mobile